Time;durP1;ratioP1;P1;durP2;ratioP2;P2;SDS_P1;SDS_P2;PMS_P1;PMS_P2;Temp;Humidity;BMP_temperature;BMP_pressure;BME280_temperature;BME280_humidity;BME280_pressure;Samples;Min_cycle;Max_cycle;Signal;HPM_P1;HPM_P2
2023/03/19 00:01:05;;;;;;;;;;;13.60;99.90;;;;;;6338980;22;19907;-89
2023/03/19 00:03:31;;;;;;;;;;;12.50;99.90;;;;;;6337297;22;20319;-88
2023/03/19 00:06:06;;;;;;;;;;;13.00;99.90;;;;;;6338828;22;19903;-89
2023/03/19 00:08:33;;;;;;;;;;;12.50;99.90;;;;;;6340115;22;19903;-90
2023/03/19 00:11:06;;;;;;;;;;;13.30;99.90;;;;;;6341527;22;19907;-89
2023/03/19 00:13:38;;;;;;;;;;;12.50;99.90;;;;;;6338542;22;19916;-90
2023/03/19 00:16:04;;;;;;;;;;;12.50;99.90;;;;;;6337771;22;20002;-89
2023/03/19 00:18:30;;;;;;;;;;;12.10;99.90;;;;;;6337847;22;19928;-90
2023/03/19 00:21:08;;;;;;;;;;;12.70;99.90;;;;;;6338981;22;19906;-89
2023/03/19 00:23:35;;;;;;;;;;;12.50;99.90;;;;;;6336899;22;19910;-90
2023/03/19 00:26:03;;;;;;;;;;;13.10;99.90;;;;;;6338461;22;19910;-89
2023/03/19 00:28:29;;;;;;;;;;;12.40;99.90;;;;;;6338598;22;19903;-90
2023/03/19 00:31:05;;;;;;;;;;;13.20;99.90;;;;;;6338206;22;19909;-89
2023/03/19 00:33:31;;;;;;;;;;;12.40;99.90;;;;;;6338001;22;20318;-89
2023/03/19 00:35:57;;;;;;;;;;;12.50;99.90;;;;;;6338397;22;19914;-90
2023/03/19 00:38:38;;;;;;;;;;;12.30;99.90;;;;;;6338071;22;20011;-90
2023/03/19 00:41:07;;;;;;;;;;;12.30;99.90;;;;;;6339398;22;19906;-89
2023/03/19 00:43:32;;;;;;;;;;;12.30;99.90;;;;;;6338190;22;19990;-89
2023/03/19 00:46:01;;;;;;;;;;;13.20;99.90;;;;;;6337405;22;19938;-90
2023/03/19 00:48:29;;;;;;;;;;;13.30;99.90;;;;;;6338379;22;19902;-88
2023/03/19 00:51:05;;;;;;;;;;;11.80;99.90;;;;;;6339048;22;19973;-89
2023/03/19 00:53:30;;;;;;;;;;;12.40;99.90;;;;;;6337796;22;19911;-89
2023/03/19 00:55:59;;;;;;;;;;;13.10;99.90;;;;;;6339125;22;19902;-89
2023/03/19 00:58:34;;;;;;;;;;;12.10;99.90;;;;;;6338212;22;19924;-90
2023/03/19 01:01:03;;;;;;;;;;;12.30;99.90;;;;;;6339334;22;19902;-90
2023/03/19 01:03:28;;;;;;;;;;;12.30;99.90;;;;;;6338494;22;19907;-89
2023/03/19 01:05:59;;;;;;;;;;;12.50;99.90;;;;;;6337793;22;19909;-88
2023/03/19 01:08:26;;;;;;;;;;;12.30;99.90;;;;;;6338349;22;19903;-89
2023/03/19 01:11:32;;;;;;;;;;;12.90;99.90;;;;;;6338660;22;19902;-90
2023/03/19 01:14:01;;;;;;;;;;;12.30;99.90;;;;;;6261642;22;19918;-89
2023/03/19 01:16:29;;;;;;;;;;;13.20;99.90;;;;;;6332121;22;19906;-89
2023/03/19 01:18:55;;;;;;;;;;;12.20;99.90;;;;;;6339102;22;19910;-90
2023/03/19 01:21:32;;;;;;;;;;;12.90;99.90;;;;;;6338138;22;19903;-89
2023/03/19 01:23:58;;;;;;;;;;;11.90;99.90;;;;;;6339129;22;19903;-89
2023/03/19 01:26:24;;;;;;;;;;;12.90;99.90;;;;;;6339677;22;19959;-89
2023/03/19 01:28:58;;;;;;;;;;;12.10;99.90;;;;;;6338580;22;19903;-89
2023/03/19 01:31:26;;;;;;;;;;;12.10;99.90;;;;;;6340386;22;19925;-90
2023/03/19 01:33:55;;;;;;;;;;;12.50;99.90;;;;;;6333149;22;19918;-90
2023/03/19 01:36:26;;;;;;;;;;;12.10;99.90;;;;;;6340384;22;20331;-89
2023/03/19 01:38:57;;;;;;;;;;;12.00;99.90;;;;;;6340539;22;19909;-88
2023/03/19 01:41:23;;;;;;;;;;;12.10;99.90;;;;;;6338964;22;19909;-89
2023/03/19 01:43:48;;;;;;;;;;;11.50;99.90;;;;;;6340583;22;19911;-88
2023/03/19 01:46:29;;;;;;;;;;;12.70;99.90;;;;;;6340035;22;19922;-88
2023/03/19 01:48:59;;;;;;;;;;;11.90;99.90;;;;;;6338850;22;19931;-90
2023/03/19 01:51:27;;;;;;;;;;;11.90;99.90;;;;;;6339724;22;20363;-89
2023/03/19 01:53:56;;;;;;;;;;;12.00;99.90;;;;;;6340391;22;19910;-88
2023/03/19 01:56:28;;;;;;;;;;;12.20;99.90;;;;;;6339306;22;19959;-89
2023/03/19 01:58:59;;;;;;;;;;;12.80;99.90;;;;;;6340600;22;19910;-89
2023/03/19 02:01:28;;;;;;;;;;;11.20;99.90;;;;;;6340371;22;20278;-89
2023/03/19 02:04:00;;;;;;;;;;;12.10;99.90;;;;;;6341068;22;19934;-89
2023/03/19 02:06:29;;;;;;;;;;;12.80;99.90;;;;;;6340253;22;19932;-89
2023/03/19 02:08:57;;;;;;;;;;;12.00;99.90;;;;;;6339400;22;20355;-89
2023/03/19 02:11:32;;;;;;;;;;;12.60;99.90;;;;;;6340180;22;19903;-90
2023/03/19 02:13:58;;;;;;;;;;;11.40;99.90;;;;;;6340181;22;19910;-90
2023/03/19 02:16:29;;;;;;;;;;;12.60;99.90;;;;;;6339394;22;19986;-89
2023/03/19 02:18:55;;;;;;;;;;;11.90;99.90;;;;;;6340009;22;19994;-87
2023/03/19 02:21:21;;;;;;;;;;;12.50;99.90;;;;;;6340253;22;19902;-90
2023/03/19 02:23:57;;;;;;;;;;;12.50;99.90;;;;;;6339121;22;19906;-90
2023/03/19 02:26:58;;;;;;;;;;;11.80;99.90;;;;;;6338304;22;19903;-90
2023/03/19 02:29:29;;;;;;;;;;;11.80;99.90;;;;;;6339719;22;19903;-90
2023/03/19 02:31:55;;;;;;;;;;;11.50;99.90;;;;;;6339221;22;19915;-89
2023/03/19 02:34:21;;;;;;;;;;;12.80;99.90;;;;;;6339514;22;20032;-90
2023/03/19 02:36:49;;;;;;;;;;;12.20;99.90;;;;;;6339676;22;19910;-90
2023/03/19 02:39:29;;;;;;;;;;;12.20;99.90;;;;;;6340344;22;19910;-90
2023/03/19 02:42:01;;;;;;;;;;;11.80;99.90;;;;;;6343152;22;19907;-90
2023/03/19 02:44:36;;;;;;;;;;;11.90;99.90;;;;;;6338702;22;19948;-88
2023/03/19 02:47:04;;;;;;;;;;;11.80;99.90;;;;;;6339860;22;19949;-89
2023/03/19 02:49:30;;;;;;;;;;;11.90;99.90;;;;;;6338600;22;20350;-90
2023/03/19 02:51:56;;;;;;;;;;;12.10;99.90;;;;;;6339348;22;19911;-89
2023/03/19 02:54:27;;;;;;;;;;;12.20;99.90;;;;;;6339946;22;20293;-90
2023/03/19 02:56:53;;;;;;;;;;;12.10;99.90;;;;;;6339682;22;19959;-90
2023/03/19 02:59:22;;;;;;;;;;;12.00;99.90;;;;;;6339210;22;19931;-89
2023/03/19 03:01:56;;;;;;;;;;;12.60;99.90;;;;;;6339752;22;19906;-89
2023/03/19 03:04:32;;;;;;;;;;;11.90;99.90;;;;;;6329511;22;19982;-90
2023/03/19 03:06:57;;;;;;;;;;;11.90;99.90;;;;;;6338776;22;19902;-89
2023/03/19 03:09:29;;;;;;;;;;;12.40;99.90;;;;;;6339197;22;19960;-89
2023/03/19 03:11:55;;;;;;;;;;;11.80;99.90;;;;;;6338233;22;19915;-90
2023/03/19 03:14:27;;;;;;;;;;;11.40;99.90;;;;;;6339515;22;20334;-89
2023/03/19 03:16:56;;;;;;;;;;;11.70;99.90;;;;;;6338410;22;19982;-89
2023/03/19 03:19:27;;;;;;;;;;;12.40;99.90;;;;;;6338430;22;19952;-88
2023/03/19 03:21:59;;;;;;;;;;;11.70;99.90;;;;;;6338663;22;20388;-89
2023/03/19 03:24:27;;;;;;;;;;;11.50;99.90;;;;;;6339393;22;19903;-90
2023/03/19 03:26:55;;;;;;;;;;;12.20;99.90;;;;;;6338954;22;20268;-89
2023/03/19 03:29:21;;;;;;;;;;;10.80;99.90;;;;;;6339130;22;20233;-90
2023/03/19 03:31:47;;;;;;;;;;;10.70;99.90;;;;;;6338913;22;19906;-89
2023/03/19 03:34:12;;;;;;;;;;;11.90;99.90;;;;;;6338793;22;20001;-89
2023/03/19 03:36:38;;;;;;;;;;;11.30;99.90;;;;;;6338836;22;19906;-89
2023/03/19 03:39:04;;;;;;;;;;;11.80;99.90;;;;;;6339365;22;19906;-89
2023/03/19 03:41:29;;;;;;;;;;;11.90;99.90;;;;;;6338488;22;19960;-89
2023/03/19 03:43:58;;;;;;;;;;;12.10;99.90;;;;;;6339482;22;19903;-89
2023/03/19 03:46:23;;;;;;;;;;;11.20;99.90;;;;;;6338412;22;19939;-88
2023/03/19 03:48:50;;;;;;;;;;;11.20;99.90;;;;;;6338004;22;19942;-89
2023/03/19 03:51:25;;;;;;;;;;;11.00;99.90;;;;;;6338873;22;19909;-90
2023/03/19 03:53:50;;;;;;;;;;;11.20;99.90;;;;;;6338892;22;19917;-89
2023/03/19 03:56:16;;;;;;;;;;;12.00;99.90;;;;;;6339731;22;19985;-90
2023/03/19 03:58:42;;;;;;;;;;;12.00;99.90;;;;;;6328127;22;19903;-88
2023/03/19 04:01:09;;;;;;;;;;;12.00;99.90;;;;;;6338853;22;20204;-88
2023/03/19 04:03:34;;;;;;;;;;;11.40;99.90;;;;;;6339036;22;19911;-88
2023/03/19 04:06:00;;;;;;;;;;;11.50;99.90;;;;;;6338384;22;20302;-89
2023/03/19 04:08:25;;;;;;;;;;;11.70;99.90;;;;;;6337902;22;19910;-89
2023/03/19 04:10:53;;;;;;;;;;;11.90;99.90;;;;;;6337956;22;19902;-89
2023/03/19 04:13:24;;;;;;;;;;;11.00;99.90;;;;;;6338772;22;20391;-89
2023/03/19 04:15:52;;;;;;;;;;;10.90;99.90;;;;;;6338235;22;19907;-89
2023/03/19 04:18:26;;;;;;;;;;;11.50;99.90;;;;;;6339428;22;19941;-89
2023/03/19 04:20:52;;;;;;;;;;;11.20;99.90;;;;;;6338513;22;19903;-88
2023/03/19 04:23:32;;;;;;;;;;;11.60;99.90;;;;;;6338283;22;19903;-91
2023/03/19 04:26:05;;;;;;;;;;;10.20;99.90;;;;;;6339426;22;19903;-90
2023/03/19 04:28:37;;;;;;;;;;;10.30;99.90;;;;;;6338935;22;19910;-90
2023/03/19 04:31:06;;;;;;;;;;;10.80;99.90;;;;;;6338091;22;19948;-88
2023/03/19 04:33:40;;;;;;;;;;;10.90;99.90;;;;;;6338483;22;19911;-88
2023/03/19 04:36:20;;;;;;;;;;;11.40;99.90;;;;;;6339179;22;19907;-89
2023/03/19 04:39:08;;;;;;;;;;;10.80;99.90;;;;;;6338390;22;19909;-89
2023/03/19 04:41:34;;;;;;;;;;;11.70;99.90;;;;;;6322940;22;19906;-90
2023/03/19 04:44:00;;;;;;;;;;;11.10;99.90;;;;;;6337425;22;19910;-89
2023/03/19 04:46:32;;;;;;;;;;;11.50;99.90;;;;;;6338521;22;20336;-90
2023/03/19 04:48:58;;;;;;;;;;;10.90;99.90;;;;;;6338984;22;19910;-88
2023/03/19 04:51:24;;;;;;;;;;;11.50;99.90;;;;;;6338105;22;19934;-89
2023/03/19 04:53:49;;;;;;;;;;;11.40;99.90;;;;;;6338527;22;19918;-91
2023/03/19 04:56:30;;;;;;;;;;;12.00;99.90;;;;;;6339353;22;19902;-89
2023/03/19 04:58:56;;;;;;;;;;;10.80;99.90;;;;;;6337763;22;19902;-89
2023/03/19 05:01:21;;;;;;;;;;;12.10;99.90;;;;;;6337927;22;19903;-90
2023/03/19 05:03:47;;;;;;;;;;;10.80;99.90;;;;;;6338759;22;19902;-88
2023/03/19 05:06:27;;;;;;;;;;;10.90;99.90;;;;;;6339704;22;19981;-89
2023/03/19 05:08:53;;;;;;;;;;;10.80;99.90;;;;;;6340817;22;19909;-88
2023/03/19 05:11:24;;;;;;;;;;;10.30;99.90;;;;;;6341583;22;19941;-88
2023/03/19 05:13:50;;;;;;;;;;;10.80;99.90;;;;;;6341151;22;19918;-90
2023/03/19 05:16:25;;;;;;;;;;;11.40;99.90;;;;;;6340023;22;19903;-89
2023/03/19 05:18:50;;;;;;;;;;;10.70;99.90;;;;;;6340254;22;19937;-89
2023/03/19 05:21:16;;;;;;;;;;;11.30;99.90;;;;;;6335808;22;19907;-89
2023/03/19 05:23:41;;;;;;;;;;;11.80;99.90;;;;;;6340010;22;19909;-89
2023/03/19 05:26:07;;;;;;;;;;;11.30;99.90;;;;;;6339283;22;19909;-89
2023/03/19 05:28:33;;;;;;;;;;;11.00;99.90;;;;;;6339989;22;19934;-89
2023/03/19 05:31:08;;;;;;;;;;;11.30;99.90;;;;;;6340222;22;19932;-89
2023/03/19 05:33:34;;;;;;;;;;;11.20;99.90;;;;;;6339517;22;19989;-88
2023/03/19 05:35:59;;;;;;;;;;;11.30;99.90;;;;;;6340613;22;19998;-90
2023/03/19 05:38:25;;;;;;;;;;;11.30;99.90;;;;;;6340232;22;19930;-89
2023/03/19 05:40:53;;;;;;;;;;;11.30;99.90;;;;;;6339619;22;20264;-90
2023/03/19 05:43:18;;;;;;;;;;;11.20;99.90;;;;;;6339202;22;19907;-89
2023/03/19 05:45:48;;;;;;;;;;;11.20;99.90;;;;;;6339872;22;19956;-88
2023/03/19 05:48:23;;;;;;;;;;;11.30;99.90;;;;;;6339288;22;20314;-90
2023/03/19 05:50:58;;;;;;;;;;;10.60;99.90;;;;;;6340009;22;20350;-89
2023/03/19 05:53:23;;;;;;;;;;;10.60;99.90;;;;;;6340090;22;19962;-89
2023/03/19 05:55:52;;;;;;;;;;;10.70;99.90;;;;;;6339598;22;20310;-89
2023/03/19 05:58:27;;;;;;;;;;;10.40;99.90;;;;;;6340134;22;19934;-89
2023/03/19 06:00:54;;;;;;;;;;;10.40;99.90;;;;;;6339158;22;19913;-89
2023/03/19 06:03:25;;;;;;;;;;;11.10;99.90;;;;;;6339740;22;19956;-89
2023/03/19 06:05:51;;;;;;;;;;;10.30;99.90;;;;;;6340226;22;19907;-89
2023/03/19 06:08:26;;;;;;;;;;;11.20;99.90;;;;;;6339487;22;19902;-89
2023/03/19 06:10:52;;;;;;;;;;;10.30;99.90;;;;;;6339635;22;19910;-90
2023/03/19 06:13:17;;;;;;;;;;;10.80;99.90;;;;;;6339534;22;20238;-89
2023/03/19 06:16:19;;;;;;;;;;;11.20;99.90;;;;;;6338651;22;19956;-89
2023/03/19 06:18:50;;;;;;;;;;;10.30;99.90;;;;;;6209139;22;19902;-90
2023/03/19 06:21:16;;;;;;;;;;;10.30;99.90;;;;;;6339581;22;19907;-89
2023/03/19 06:23:41;;;;;;;;;;;10.90;99.90;;;;;;6338686;22;20661;-89
2023/03/19 06:26:07;;;;;;;;;;;10.50;99.90;;;;;;6339204;22;20230;-89
2023/03/19 06:28:32;;;;;;;;;;;10.20;99.90;;;;;;6340228;22;19949;-90
2023/03/19 06:30:58;;;;;;;;;;;11.00;99.90;;;;;;6339887;22;19988;-88
2023/03/19 06:33:26;;;;;;;;;;;10.90;99.90;;;;;;6339164;22;20387;-89
2023/03/19 06:35:52;;;;;;;;;;;11.20;99.90;;;;;;6339041;22;19903;-89
2023/03/19 06:38:17;;;;;;;;;;;11.10;99.90;;;;;;6340070;22;19902;-90
2023/03/19 06:40:45;;;;;;;;;;;10.30;99.90;;;;;;6339889;22;20234;-89
2023/03/19 06:43:11;;;;;;;;;;;10.90;99.90;;;;;;6339161;22;20323;-89
2023/03/19 06:45:37;;;;;;;;;;;10.90;99.90;;;;;;6339242;22;19938;-90
2023/03/19 06:48:02;;;;;;;;;;;10.80;99.90;;;;;;6339582;22;19903;-90
2023/03/19 06:50:28;;;;;;;;;;;10.30;99.90;;;;;;6338597;22;19989;-90
2023/03/19 06:52:57;;;;;;;;;;;11.00;99.90;;;;;;6339831;22;19959;-89
2023/03/19 06:55:29;;;;;;;;;;;10.20;99.90;;;;;;6339335;22;20347;-89
2023/03/19 06:58:03;;;;;;;;;;;10.40;99.90;;;;;;6338900;22;19906;-89
2023/03/19 07:00:35;;;;;;;;;;;10.40;99.90;;;;;;6339758;22;19981;-89
2023/03/19 07:03:01;;;;;;;;;;;10.30;99.90;;;;;;6339651;22;19902;-89
2023/03/19 07:05:26;;;;;;;;;;;11.10;99.90;;;;;;6338919;22;19903;-89
2023/03/19 07:07:52;;;;;;;;;;;10.10;99.90;;;;;;6339973;22;19907;-89
2023/03/19 07:10:18;;;;;;;;;;;10.70;99.90;;;;;;6339444;22;19903;-89
2023/03/19 07:12:52;;;;;;;;;;;10.10;99.90;;;;;;6338632;22;19975;-89
2023/03/19 07:15:20;;;;;;;;;;;9.70;99.90;;;;;;6339141;22;19904;-89
2023/03/19 07:17:49;;;;;;;;;;;10.00;99.90;;;;;;6339411;22;19930;-88
2023/03/19 07:20:26;;;;;;;;;;;10.00;99.90;;;;;;6338558;22;19985;-89
2023/03/19 07:22:52;;;;;;;;;;;9.90;99.90;;;;;;6339281;22;19934;-89
2023/03/19 07:25:18;;;;;;;;;;;9.80;99.90;;;;;;6338646;22;19906;-89
2023/03/19 07:27:45;;;;;;;;;;;9.80;99.90;;;;;;6338548;22;19969;-88
2023/03/19 07:30:11;;;;;;;;;;;10.00;99.90;;;;;;6338832;22;19979;-89
2023/03/19 07:32:37;;;;;;;;;;;10.00;99.90;;;;;;6337661;22;19910;-89
2023/03/19 07:35:04;;;;;;;;;;;10.60;99.90;;;;;;6339648;22;19907;-89
2023/03/19 07:37:30;;;;;;;;;;;9.90;99.90;;;;;;6338364;22;20370;-89
2023/03/19 07:39:56;;;;;;;;;;;9.90;99.90;;;;;;6338782;22;19933;-89
2023/03/19 07:42:21;;;;;;;;;;;10.00;99.90;;;;;;6340341;22;19907;-89
2023/03/19 07:44:46;;;;;;;;;;;10.80;99.90;;;;;;6338924;22;20314;-89
2023/03/19 07:47:21;;;;;;;;;;;10.50;99.90;;;;;;6338754;22;19911;-89
2023/03/19 07:49:46;;;;;;;;;;;8.60;99.90;;;;;;6339603;22;19907;-90
2023/03/19 07:52:13;;;;;;;;;;;10.80;99.90;;;;;;6339237;22;19929;-89
2023/03/19 07:54:38;;;;;;;;;;;10.20;99.90;;;;;;6332932;22;19902;-89
2023/03/19 07:57:07;;;;;;;;;;;10.80;99.90;;;;;;6339033;22;19902;-89
2023/03/19 07:59:32;;;;;;;;;;;11.10;99.90;;;;;;6338878;22;19903;-89
2023/03/19 08:01:57;;;;;;;;;;;11.00;99.90;;;;;;6337900;22;20490;-89
2023/03/19 08:04:23;;;;;;;;;;;11.40;99.90;;;;;;6338232;22;19984;-89
2023/03/19 08:06:49;;;;;;;;;;;10.20;99.90;;;;;;6337751;22;19906;-89
2023/03/19 08:09:20;;;;;;;;;;;11.10;99.90;;;;;;6338117;22;19956;-89
2023/03/19 08:12:07;;;;;;;;;;;10.80;99.90;;;;;;6337990;22;19926;-87
2023/03/19 08:14:32;;;;;;;;;;;10.20;99.90;;;;;;6336180;22;20291;-88
2023/03/19 08:16:58;;;;;;;;;;;10.00;99.90;;;;;;6338823;22;19910;-88
2023/03/19 08:19:27;;;;;;;;;;;11.00;99.90;;;;;;6339040;22;19968;-88
2023/03/19 08:21:52;;;;;;;;;;;10.20;99.90;;;;;;6331229;22;19981;-88
2023/03/19 08:24:18;;;;;;;;;;;10.20;99.90;;;;;;6337521;22;19937;-90
2023/03/19 08:26:44;;;;;;;;;;;10.20;99.90;;;;;;6338203;22;19903;-89
2023/03/19 08:29:09;;;;;;;;;;;10.20;99.90;;;;;;6324428;22;19918;-90
2023/03/19 08:31:36;;;;;;;;;;;11.40;99.90;;;;;;6338658;22;19956;-89
2023/03/19 08:34:03;;;;;;;;;;;10.20;99.90;;;;;;6339302;22;19917;-90
2023/03/19 08:36:29;;;;;;;;;;;10.80;99.90;;;;;;6338926;22;19909;-90
2023/03/19 08:38:55;;;;;;;;;;;11.20;99.90;;;;;;6339924;22;19918;-91
2023/03/19 08:41:23;;;;;;;;;;;10.90;99.90;;;;;;6338594;22;19910;-90
2023/03/19 08:43:49;;;;;;;;;;;10.20;99.90;;;;;;6338012;22;19903;-89
2023/03/19 08:46:25;;;;;;;;;;;11.00;99.90;;;;;;6338627;22;19919;-90
2023/03/19 08:49:02;;;;;;;;;;;10.90;99.90;;;;;;6340400;22;19916;-89
2023/03/19 08:51:29;;;;;;;;;;;10.10;99.90;;;;;;6340213;22;19906;-90
2023/03/19 08:53:55;;;;;;;;;;;11.00;99.90;;;;;;6340979;22;19933;-91
2023/03/19 08:56:21;;;;;;;;;;;10.40;99.90;;;;;;6339688;22;20315;-91
2023/03/19 08:58:57;;;;;;;;;;;10.20;99.90;;;;;;6346065;22;19984;-90
2023/03/19 09:01:24;;;;;;;;;;;10.30;99.90;;;;;;6336274;22;19902;-88
2023/03/19 09:03:55;;;;;;;;;;;10.40;99.90;;;;;;6336886;22;19911;-89
2023/03/19 09:06:21;;;;;;;;;;;10.40;99.90;;;;;;6337914;22;19902;-89
2023/03/19 09:08:48;;;;;;;;;;;10.60;99.90;;;;;;6338267;22;19930;-88
2023/03/19 09:11:16;;;;;;;;;;;10.50;99.90;;;;;;6338009;22;19925;-88
2023/03/19 09:14:00;;;;;;;;;;;10.40;99.90;;;;;;6337812;22;19910;-88
2023/03/19 09:16:26;;;;;;;;;;;10.10;99.90;;;;;;6338185;22;19907;-90
2023/03/19 09:18:51;;;;;;;;;;;10.50;99.90;;;;;;6337415;22;19999;-89
2023/03/19 09:21:17;;;;;;;;;;;11.20;99.90;;;;;;6340074;22;19911;-89
2023/03/19 09:23:51;;;;;;;;;;;11.20;99.90;;;;;;6340436;22;19922;-88
2023/03/19 09:26:25;;;;;;;;;;;10.80;99.90;;;;;;6339261;22;19902;-90
2023/03/19 09:28:53;;;;;;;;;;;10.50;99.90;;;;;;6338997;22;19977;-89
2023/03/19 09:31:25;;;;;;;;;;;11.10;99.90;;;;;;6339515;22;19957;-92
2023/03/19 09:33:50;;;;;;;;;;;10.50;99.90;;;;;;6338684;22;19956;-91
2023/03/19 09:36:22;;;;;;;;;;;11.20;99.90;;;;;;6339805;22;19903;-91
2023/03/19 09:38:56;;;;;;;;;;;10.20;99.90;;;;;;6338829;22;20311;-90
2023/03/19 09:41:33;;;;;;;;;;;10.50;99.90;;;;;;6337875;22;19949;-90
2023/03/19 09:44:23;;;;;;;;;;;10.50;99.90;;;;;;6338848;22;20362;-89
2023/03/19 09:47:01;;;;;;;;;;;10.60;99.90;;;;;;6336354;22;19914;-90
2023/03/19 09:49:31;;;;;;;;;;;10.60;99.90;;;;;;6337343;22;19902;-89
2023/03/19 09:52:02;;;;;;;;;;;11.20;99.90;;;;;;6339374;22;19906;-89
2023/03/19 09:54:30;;;;;;;;;;;11.30;99.90;;;;;;6339067;22;19906;-88
2023/03/19 09:56:56;;;;;;;;;;;10.50;99.90;;;;;;6340319;22;19907;-89
2023/03/19 09:59:26;;;;;;;;;;;11.30;99.90;;;;;;6339204;22;20298;-90
2023/03/19 10:08:35;;;;;;;;;;;10.60;99.90;;;;;;6337619;22;20333;-89
2023/03/19 10:11:19;;;;;;;;;;;;;;;;;;;;;
2023/03/19 10:14:01;;;;;;;;;;;10.60;99.90;;;;;;6337054;22;19977;-90
2023/03/19 10:16:30;;;;;;;;;;;10.60;99.90;;;;;;6337422;22;19924;-88
2023/03/19 10:19:00;;;;;;;;;;;10.90;99.90;;;;;;6336069;22;19984;-90
2023/03/19 10:21:50;;;;;;;;;;;11.00;99.90;;;;;;6337291;22;19909;-89
2023/03/19 10:24:26;;;;;;;;;;;10.60;99.90;;;;;;6337492;22;20231;-90
2023/03/19 10:27:15;;;;;;;;;;;10.60;99.90;;;;;;6337570;22;19902;-90
2023/03/19 10:29:41;;;;;;;;;;;10.60;99.90;;;;;;6180471;23;19919;-90
2023/03/19 10:32:22;;;;;;;;;;;11.30;99.90;;;;;;6183191;23;19905;-90
2023/03/19 10:34:54;;;;;;;;;;;10.60;99.90;;;;;;6182302;23;19904;-90
2023/03/19 10:37:27;;;;;;;;;;;10.60;99.90;;;;;;6182761;23;19979;-90
2023/03/19 10:39:56;;;;;;;;;;;10.60;99.90;;;;;;6195376;22;19984;-91
2023/03/19 10:42:22;;;;;;;;;;;10.30;99.90;;;;;;6334905;22;19903;-90
2023/03/19 10:44:55;;;;;;;;;;;11.50;99.90;;;;;;6335810;22;19956;-91
2023/03/19 10:47:25;;;;;;;;;;;10.70;99.90;;;;;;6335546;22;19906;-90
2023/03/19 10:49:54;;;;;;;;;;;11.40;99.90;;;;;;6336917;22;19907;-90
2023/03/19 10:52:25;;;;;;;;;;;10.70;99.90;;;;;;6337080;22;19938;-90
2023/03/19 10:54:55;;;;;;;;;;;10.70;99.90;;;;;;6337557;22;19989;-90
2023/03/19 10:57:25;;;;;;;;;;;10.80;99.90;;;;;;6337589;22;19918;-89
2023/03/19 10:59:54;;;;;;;;;;;11.10;99.90;;;;;;6337772;22;20304;-89
2023/03/19 11:02:31;;;;;;;;;;;10.80;99.90;;;;;;6337577;22;19910;-90
2023/03/19 11:05:07;;;;;;;;;;;10.80;99.90;;;;;;6337142;22;20310;-90
2023/03/19 11:07:34;;;;;;;;;;;10.80;99.90;;;;;;6335680;22;19914;-89
2023/03/19 11:10:00;;;;;;;;;;;10.90;99.90;;;;;;6335085;22;19922;-90
2023/03/19 11:12:32;;;;;;;;;;;11.30;99.90;;;;;;6335592;22;19918;-90
2023/03/19 11:14:59;;;;;;;;;;;10.90;99.90;;;;;;6340002;22;19911;-90
2023/03/19 11:17:51;;;;;;;;;;;11.70;99.90;;;;;;6338508;22;19917;-90
2023/03/19 11:20:26;;;;;;;;;;;11.00;99.90;;;;;;6339520;22;19928;-90
2023/03/19 11:22:57;;;;;;;;;;;10.90;99.90;;;;;;6339884;22;19926;-90
2023/03/19 11:25:27;;;;;;;;;;;10.80;99.90;;;;;;6338632;22;19910;-91
2023/03/19 11:28:05;;;;;;;;;;;11.00;99.90;;;;;;6342214;22;19932;-91
2023/03/19 11:30:35;;;;;;;;;;;11.50;99.90;;;;;;6341977;22;19956;-89
2023/03/19 11:33:19;;;;;;;;;;;11.10;99.90;;;;;;6339268;22;19949;-89
2023/03/19 11:36:07;;;;;;;;;;;11.10;99.90;;;;;;6337863;22;19914;-90
2023/03/19 11:38:39;;;;;;;;;;;10.80;99.90;;;;;;6338423;22;20358;-90
2023/03/19 11:41:23;;;;;;;;;;;;;;;;;;;;;
2023/03/19 11:43:55;;;;;;;;;;;11.10;99.90;;;;;;6335072;22;19981;-90
2023/03/19 11:46:53;;;;;;;;;;;11.20;99.90;;;;;;6339239;22;19903;-90
2023/03/19 11:49:31;;;;;;;;;;;11.90;99.90;;;;;;6325251;22;20372;-91
2023/03/19 11:52:12;;;;;;;;;;;11.20;99.90;;;;;;6339898;22;19902;-91
2023/03/19 11:55:03;;;;;;;;;;;10.70;99.90;;;;;;6338524;22;19907;-89
2023/03/19 11:58:02;;;;;;;;;;;11.30;99.90;;;;;;6339729;22;20265;-90
2023/03/19 12:00:49;;;;;;;;;;;11.30;99.90;;;;;;6336658;22;19902;-92
2023/03/19 12:03:53;;;;;;;;;;;11.50;99.90;;;;;;6340563;22;20223;-89
2023/03/19 12:06:34;;;;;;;;;;;11.50;99.90;;;;;;6181265;23;19912;-90
2023/03/19 12:09:02;;;;;;;;;;;11.50;99.90;;;;;;6182917;23;19904;-89
2023/03/19 12:11:39;;;;;;;;;;;12.10;99.90;;;;;;6273012;22;20242;-90
2023/03/19 12:14:16;;;;;;;;;;;11.50;99.90;;;;;;6337864;22;19961;-91
2023/03/19 12:16:54;;;;;;;;;;;11.50;99.90;;;;;;6338520;22;20335;-90
2023/03/19 12:19:32;;;;;;;;;;;11.60;99.90;;;;;;6338996;22;19902;-92
2023/03/19 12:22:09;;;;;;;;;;;11.70;99.90;;;;;;6338204;22;19952;-92
2023/03/19 12:24:36;;;;;;;;;;;11.70;99.90;;;;;;6338890;22;20355;-91
2023/03/19 12:27:40;;;;;;;;;;;11.90;99.90;;;;;;6339365;22;19903;-91
2023/03/19 12:30:25;;;;;;;;;;;11.80;99.90;;;;;;6183353;23;19908;-88
2023/03/19 12:32:54;;;;;;;;;;;11.90;99.90;;;;;;6181923;23;20329;-89
2023/03/19 12:35:23;;;;;;;;;;;11.90;99.90;;;;;;6277508;22;19926;-89
2023/03/19 12:38:00;;;;;;;;;;;12.00;99.90;;;;;;6337641;22;19981;-91
2023/03/19 12:40:28;;;;;;;;;;;12.00;99.90;;;;;;6338934;22;19903;-90
2023/03/19 12:42:58;;;;;;;;;;;12.50;99.90;;;;;;6340872;22;19928;-90
2023/03/19 12:45:30;;;;;;;;;;;12.10;99.90;;;;;;6342874;22;19909;-89
2023/03/19 12:47:59;;;;;;;;;;;12.10;99.90;;;;;;6338722;22;19910;-89
2023/03/19 12:50:26;;;;;;;;;;;12.10;99.90;;;;;;6337955;22;20718;-90
2023/03/19 12:52:54;;;;;;;;;;;12.20;99.90;;;;;;6337874;22;20287;-90
2023/03/19 12:55:24;;;;;;;;;;;12.20;99.90;;;;;;6337890;22;19963;-89
2023/03/19 12:57:55;;;;;;;;;;;12.30;99.90;;;;;;6337521;22;19910;-90
2023/03/19 13:00:23;;;;;;;;;;;12.30;99.90;;;;;;6338131;22;19903;-91
2023/03/19 13:03:20;;;;;;;;;;;12.40;99.90;;;;;;6337764;22;19907;-89
2023/03/19 13:05:48;;;;;;;;;;;12.40;99.90;;;;;;6337118;22;20319;-89
2023/03/19 13:08:17;;;;;;;;;;;12.50;99.90;;;;;;6338871;22;19939;-89
2023/03/19 13:10:52;;;;;;;;;;;12.40;99.90;;;;;;6337199;22;19903;-89
2023/03/19 13:13:30;;;;;;;;;;;12.40;99.90;;;;;;6338148;22;19910;-90
2023/03/19 13:16:07;;;;;;;;;;;13.00;99.90;;;;;;6338260;22;20377;-89
2023/03/19 13:18:32;;;;;;;;;;;12.50;99.90;;;;;;6337611;22;19903;-89
2023/03/19 13:21:10;;;;;;;;;;;13.30;99.90;;;;;;6337975;22;19956;-90
2023/03/19 13:23:37;;;;;;;;;;;12.60;99.90;;;;;;6338140;22;19909;-91
2023/03/19 13:26:06;;;;;;;;;;;12.50;99.90;;;;;;6338495;22;19902;-91
2023/03/19 13:28:52;;;;;;;;;;;12.50;99.90;;;;;;6340499;22;19902;-91
2023/03/19 13:31:23;;;;;;;;;;;12.50;99.90;;;;;;6340450;22;19902;-91
2023/03/19 13:33:52;;;;;;;;;;;12.50;99.90;;;;;;6341380;22;19987;-91
2023/03/19 13:36:19;;;;;;;;;;;12.50;99.90;;;;;;6341076;22;19906;-90
2023/03/19 13:38:49;;;;;;;;;;;12.50;99.90;;;;;;6340144;22;19906;-90
2023/03/19 13:41:54;;;;;;;;;;;12.50;99.90;;;;;;6340023;22;19903;-88
2023/03/19 13:44:28;;;;;;;;;;;12.50;99.90;;;;;;6339232;22;20336;-89
2023/03/19 13:47:00;;;;;;;;;;;12.60;99.90;;;;;;6339233;22;19902;-88
2023/03/19 13:49:27;;;;;;;;;;;12.60;99.90;;;;;;6339181;22;19991;-88
2023/03/19 13:51:53;;;;;;;;;;;12.70;99.90;;;;;;6339019;22;19909;-91
2023/03/19 13:54:31;;;;;;;;;;;13.60;99.90;;;;;;6339406;22;19911;-90
2023/03/19 13:57:07;;;;;;;;;;;12.10;99.90;;;;;;6338348;22;19903;-88
2023/03/19 13:59:32;;;;;;;;;;;12.70;99.90;;;;;;6337986;22;20421;-89
2023/03/19 14:01:59;;;;;;;;;;;13.40;99.90;;;;;;6338250;22;19903;-89
2023/03/19 14:04:29;;;;;;;;;;;13.60;99.90;;;;;;6338388;22;19917;-89
2023/03/19 14:07:07;;;;;;;;;;;12.70;99.90;;;;;;6337227;22;19911;-89
2023/03/19 14:09:37;;;;;;;;;;;12.80;99.90;;;;;;6337335;22;19918;-90
2023/03/19 14:12:24;;;;;;;;;;;12.80;99.90;;;;;;6338431;22;20239;-89
2023/03/19 14:15:01;;;;;;;;;;;12.70;99.90;;;;;;6338263;22;20234;-88
2023/03/19 14:17:29;;;;;;;;;;;12.30;99.90;;;;;;6338299;22;19934;-90
2023/03/19 14:20:18;;;;;;;;;;;13.30;99.90;;;;;;6339758;22;20217;-88
2023/03/19 14:22:55;;;;;;;;;;;13.00;99.90;;;;;;6266067;22;19910;-87
2023/03/19 14:25:25;;;;;;;;;;;12.60;99.90;;;;;;6339378;22;19956;-88
2023/03/19 14:28:01;;;;;;;;;;;12.50;99.90;;;;;;6338206;22;20349;-91
2023/03/19 14:30:36;;;;;;;;;;;12.50;99.90;;;;;;6339310;22;19903;-89
2023/03/19 14:33:14;;;;;;;;;;;12.60;99.90;;;;;;6339011;22;20341;-88
2023/03/19 14:35:49;;;;;;;;;;;12.50;99.90;;;;;;6338101;22;19951;-88
2023/03/19 14:38:21;;;;;;;;;;;13.10;99.90;;;;;;6339409;22;19910;-88
2023/03/19 14:40:50;;;;;;;;;;;12.40;99.90;;;;;;6339101;22;19914;-90
2023/03/19 14:43:41;;;;;;;;;;;13.30;99.90;;;;;;6338909;22;19906;-88
2023/03/19 14:46:16;;;;;;;;;;;12.40;99.90;;;;;;6339452;22;19987;-89
2023/03/19 14:48:44;;;;;;;;;;;13.10;99.90;;;;;;6338711;22;19906;-88